Time,TemperatureF,DewpointF,PressureIn,WindDirection,WindDirectionDegrees,WindSpeedMPH,WindSpeedGustMPH,Humidity,HourlyPrecipIn,Conditions,Clouds,dailyrainin,SoftwareType,DateUTC
2013-07-11 00:12:00,80.1,75.0,29.97,SSW,209,0.0,-999.0,83,-99.99,,,0.00,weatherlink.com 1.10,2013-07-11 04:12:00,
2013-07-11 00:27:00,80.1,74.0,29.96,SSW,206,1.0,-999.0,82,-99.99,,,0.00,weatherlink.com 1.10,2013-07-11 04:27:00,
2013-07-11 00:42:00,80.3,75.0,29.96,South,189,6.0,-999.0,83,-99.99,,,0.00,weatherlink.com 1.10,2013-07-11 04:42:00,
2013-07-11 00:57:00,80.3,75.0,29.96,SSE,154,6.0,-999.0,83,-99.99,,,0.00,weatherlink.com 1.10,2013-07-11 04:57:00,
2013-07-11 01:12:00,80.1,75.0,29.96,SSW,202,2.0,-999.0,83,-99.99,,,0.00,weatherlink.com 1.10,2013-07-11 05:12:00,
2013-07-11 01:27:00,80.3,75.0,29.95,SSW,193,0.0,-999.0,84,-99.99,,,0.00,weatherlink.com 1.10,2013-07-11 05:27:00,
2013-07-11 01:42:00,80.3,75.0,29.95,SSE,150,0.0,-999.0,84,-99.99,,,0.00,weatherlink.com 1.10,2013-07-11 05:42:00,
2013-07-11 01:57:00,80.1,75.0,29.94,SSW,199,4.0,-999.0,84,-99.99,,,0.00,weatherlink.com 1.10,2013-07-11 05:57:00,
2013-07-11 02:12:00,79.8,75.0,29.94,SSE,162,0.0,-999.0,86,-99.99,,,0.00,weatherlink.com 1.10,2013-07-11 06:12:00,
2013-07-11 02:27:00,79.8,75.0,29.93,SSW,208,0.0,-999.0,85,-99.99,,,0.00,weatherlink.com 1.10,2013-07-11 06:27:00,
2013-07-11 02:42:00,79.6,73.0,29.93,SSW,203,6.0,-999.0,81,-99.99,,,0.00,weatherlink.com 1.10,2013-07-11 06:42:00,
2013-07-11 02:57:00,78.3,74.0,29.92,SSW,205,8.0,-999.0,87,-99.99,,,0.00,weatherlink.com 1.10,2013-07-11 06:57:00,
2013-07-11 03:12:00,77.7,74.0,29.92,South,186,0.0,-999.0,89,-99.99,,,0.00,weatherlink.com 1.10,2013-07-11 07:12:00,
2013-07-11 03:27:00,77.6,74.0,29.91,SSE,162,7.0,-999.0,88,-99.99,,,0.00,weatherlink.com 1.10,2013-07-11 07:27:00,
2013-07-11 03:42:00,77.9,75.0,29.91,SSE,162,0.0,-999.0,91,-99.99,,,0.00,weatherlink.com 1.10,2013-07-11 07:42:00,
2013-07-11 03:57:00,78.1,75.0,29.90,SSE,164,4.0,-999.0,90,-99.99,,,0.00,weatherlink.com 1.10,2013-07-11 07:57:00,
2013-07-11 04:12:00,78.6,75.0,29.90,SW,215,7.0,-999.0,88,-99.99,,,0.00,weatherlink.com 1.10,2013-07-11 08:12:00,
2013-07-11 04:27:00,78.8,74.0,29.90,SW,227,0.0,-999.0,86,-99.99,,,0.00,weatherlink.com 1.10,2013-07-11 08:27:00,
2013-07-11 04:42:00,78.1,75.0,29.90,SW,236,4.0,-999.0,89,-99.99,,,0.00,weatherlink.com 1.10,2013-07-11 08:42:00,
2013-07-11 04:57:00,77.9,76.0,29.89,South,188,11.0,-999.0,92,-99.99,,,0.00,weatherlink.com 1.10,2013-07-11 08:57:00,
2013-07-11 05:12:00,77.7,75.0,29.90,WNW,282,4.0,-999.0,92,-99.99,,,0.00,weatherlink.com 1.10,2013-07-11 09:12:00,
2013-07-11 05:27:00,78.1,76.0,29.90,WSW,258,8.0,-999.0,92,-99.99,,,0.00,weatherlink.com 1.10,2013-07-11 09:27:00,
2013-07-11 05:42:00,78.3,76.0,29.90,West,274,1.0,-999.0,92,-99.99,,,0.00,weatherlink.com 1.10,2013-07-11 09:42:00,
2013-07-11 05:57:00,78.1,75.0,29.91,West,278,7.0,-999.0,91,-99.99,,,0.00,weatherlink.com 1.10,2013-07-11 09:57:00,
2013-07-11 06:12:00,78.3,75.0,29.91,WSW,244,0.0,-999.0,90,-99.99,,,0.00,weatherlink.com 1.10,2013-07-11 10:12:00,
2013-07-11 06:27:00,78.3,75.0,29.91,SW,232,1.0,-999.0,89,-99.99,,,0.00,weatherlink.com 1.10,2013-07-11 10:27:00,
2013-07-11 06:42:00,78.5,75.0,29.92,WSW,248,0.0,-999.0,90,-99.99,,,0.00,weatherlink.com 1.10,2013-07-11 10:42:00,
2013-07-11 06:57:00,78.6,76.0,29.92,West,274,0.0,-999.0,90,-99.99,,,0.00,weatherlink.com 1.10,2013-07-11 10:57:00,
2013-07-11 07:12:00,78.8,76.0,29.92,West,264,1.0,-999.0,90,-99.99,,,0.00,weatherlink.com 1.10,2013-07-11 11:12:00,
2013-07-11 07:27:00,79.0,76.0,29.93,WNW,284,0.0,-999.0,90,-99.99,,,0.00,weatherlink.com 1.10,2013-07-11 11:27:00,
2013-07-11 07:42:00,79.2,76.0,29.94,WSW,248,0.0,-999.0,89,-99.99,,,0.00,weatherlink.com 1.10,2013-07-11 11:42:00,
2013-07-11 07:57:00,79.2,76.0,29.94,WSW,237,2.0,-999.0,90,-99.99,,,0.03,weatherlink.com 1.10,2013-07-11 11:57:00,
2013-07-11 08:12:00,79.0,76.0,29.94,WSW,256,0.0,-999.0,91,-99.99,,,0.03,weatherlink.com 1.10,2013-07-11 12:12:00,
2013-07-11 08:27:00,79.2,76.0,29.94,SW,236,0.0,-999.0,91,-99.99,,,0.03,weatherlink.com 1.10,2013-07-11 12:27:00,
2013-07-11 08:42:00,77.4,75.0,29.94,WNW,287,1.0,-999.0,92,-99.99,,,0.12,weatherlink.com 1.10,2013-07-11 12:42:00,
2013-07-11 09:27:00,79.6,75.0,29.93,West,263,0.0,-999.0,86,-99.99,,,0.12,weatherlink.com 1.10,2013-07-11 13:27:00,
2013-07-11 09:42:00,80.9,76.0,29.93,West,271,0.0,-999.0,84,-99.99,,,0.12,weatherlink.com 1.10,2013-07-11 13:42:00,
2013-07-11 09:57:00,81.8,77.0,29.93,WNW,287,0.0,-999.0,84,-99.99,,,0.12,weatherlink.com 1.10,2013-07-11 13:57:00,
2013-07-11 10:12:00,81.8,76.0,29.93,NW,312,1.0,-999.0,82,-99.99,,,0.12,weatherlink.com 1.10,2013-07-11 14:12:00,
2013-07-11 10:42:00,82.2,76.0,29.93,SSW,208,6.0,-999.0,82,-99.99,,,0.12,weatherlink.com 1.10,2013-07-11 14:42:00,
2013-07-11 10:57:00,81.8,-99.9,29.93,SW,236,0.0,-999.0,-999,-99.99,,,0.12,weatherlink.com 1.10,2013-07-11 14:57:00,
2013-07-11 11:12:00,82.2,76.0,29.93,SSW,212,6.0,-999.0,80,-99.99,,,0.12,weatherlink.com 1.10,2013-07-11 15:12:00,
2013-07-11 11:27:00,82.8,75.0,29.93,SSW,198,4.0,-999.0,78,-99.99,,,0.12,weatherlink.com 1.10,2013-07-11 15:27:00,
2013-07-11 11:42:00,82.0,75.0,29.93,WSW,250,8.0,-999.0,79,-99.99,,,0.12,weatherlink.com 1.10,2013-07-11 15:42:00,
2013-07-11 11:57:00,81.6,73.0,29.93,SW,236,11.0,-999.0,76,-99.99,,,0.12,weatherlink.com 1.10,2013-07-11 15:57:00,
2013-07-11 12:12:00,81.2,75.0,29.93,SW,234,6.0,-999.0,80,-99.99,,,0.12,weatherlink.com 1.10,2013-07-11 16:12:00,
2013-07-11 12:27:00,83.0,76.0,29.93,WSW,256,7.0,-999.0,78,-99.99,,,0.12,weatherlink.com 1.10,2013-07-11 16:27:00,
2013-07-11 12:42:00,83.0,75.0,29.92,WSW,243,7.0,-999.0,77,-99.99,,,0.12,weatherlink.com 1.10,2013-07-11 16:42:00,
2013-07-11 12:57:00,83.6,76.0,29.92,SW,224,2.0,-999.0,77,-99.99,,,0.12,weatherlink.com 1.10,2013-07-11 16:57:00,
2013-07-11 13:12:00,83.6,76.0,29.92,SW,236,7.0,-999.0,77,-99.99,,,0.12,weatherlink.com 1.10,2013-07-11 17:12:00,
2013-07-11 13:27:00,84.1,77.0,29.91,SSW,198,0.0,-999.0,79,-99.99,,,0.12,weatherlink.com 1.10,2013-07-11 17:27:00,
2013-07-11 13:42:00,84.3,76.0,29.91,SSW,202,0.0,-999.0,77,-99.99,,,0.12,weatherlink.com 1.10,2013-07-11 17:42:00,
2013-07-11 13:57:00,84.0,77.0,29.91,WSW,239,4.0,-999.0,78,-99.99,,,0.12,weatherlink.com 1.10,2013-07-11 17:57:00,
2013-07-11 14:12:00,84.3,76.0,29.90,SSW,199,10.0,-999.0,76,-99.99,,,0.12,weatherlink.com 1.10,2013-07-11 18:12:00,
2013-07-11 14:27:00,84.5,76.0,29.90,SW,227,7.0,-999.0,76,-99.99,,,0.12,weatherlink.com 1.10,2013-07-11 18:27:00,
2013-07-11 14:42:00,84.5,77.0,29.89,SSW,198,2.0,-999.0,78,-99.99,,,0.12,weatherlink.com 1.10,2013-07-11 18:42:00,
2013-07-11 14:57:00,84.5,75.0,29.89,South,185,4.0,-999.0,74,-99.99,,,0.12,weatherlink.com 1.10,2013-07-11 18:57:00,
2013-07-11 15:12:00,84.5,77.0,29.88,SW,227,0.0,-999.0,77,-99.99,,,0.12,weatherlink.com 1.10,2013-07-11 19:12:00,
2013-07-11 15:27:00,83.2,75.0,29.88,SW,215,14.0,-999.0,75,-99.99,,,0.12,weatherlink.com 1.10,2013-07-11 19:27:00,
2013-07-11 15:42:00,83.8,76.0,29.88,SW,226,10.0,-999.0,77,-99.99,,,0.12,weatherlink.com 1.10,2013-07-11 19:42:00,
2013-07-11 15:57:00,83.6,75.0,29.88,SSW,213,7.0,-999.0,76,-99.99,,,0.12,weatherlink.com 1.10,2013-07-11 19:57:00,
2013-07-11 16:12:00,83.8,76.0,29.87,SW,236,6.0,-999.0,77,-99.99,,,0.12,weatherlink.com 1.10,2013-07-11 20:12:00,
2013-07-11 16:27:00,83.6,75.0,29.88,SSW,208,8.0,-999.0,76,-99.99,,,0.12,weatherlink.com 1.10,2013-07-11 20:27:00,
2013-07-11 16:57:00,83.4,77.0,29.86,SSW,203,0.0,-999.0,80,-99.99,,,0.12,weatherlink.com 1.10,2013-07-11 20:57:00,
2013-07-11 17:57:00,82.8,76.0,29.86,SSW,200,7.0,-999.0,80,-99.99,,,0.12,weatherlink.com 1.10,2013-07-11 21:57:00,
2013-07-11 18:12:00,82.4,75.0,29.86,SW,219,2.0,-999.0,79,-99.99,,,0.12,weatherlink.com 1.10,2013-07-11 22:12:00,
2013-07-11 18:42:00,81.8,75.0,29.85,South,178,1.0,-999.0,79,-99.99,,,0.12,weatherlink.com 1.10,2013-07-11 22:42:00,
2013-07-11 18:57:00,81.2,74.0,29.86,SW,222,0.0,-999.0,79,-99.99,,,0.12,weatherlink.com 1.10,2013-07-11 22:57:00,
2013-07-11 19:12:00,81.2,75.0,29.86,SSW,200,2.0,-999.0,80,-99.99,,,0.12,weatherlink.com 1.10,2013-07-11 23:12:00,
2013-07-11 19:27:00,81.1,75.0,29.87,SW,224,6.0,-999.0,82,-99.99,,,0.12,weatherlink.com 1.10,2013-07-11 23:27:00,
2013-07-11 19:42:00,80.9,75.0,29.88,SW,216,0.0,-999.0,83,-99.99,,,0.12,weatherlink.com 1.10,2013-07-11 23:42:00,
2013-07-11 19:57:00,80.7,75.0,29.88,SW,217,0.0,-999.0,82,-99.99,,,0.12,weatherlink.com 1.10,2013-07-11 23:57:00,
2013-07-11 20:12:00,80.9,75.0,29.88,SW,227,6.0,-999.0,82,-99.99,,,0.12,weatherlink.com 1.10,2013-07-12 00:12:00,
2013-07-11 20:27:00,80.7,74.0,29.87,South,185,0.0,-999.0,81,-99.99,,,0.12,weatherlink.com 1.10,2013-07-12 00:27:00,
2013-07-11 20:42:00,80.7,75.0,29.86,SW,215,4.0,-999.0,82,-99.99,,,0.12,weatherlink.com 1.10,2013-07-12 00:42:00,
2013-07-11 21:57:00,80.3,75.0,29.87,SW,224,0.0,-999.0,83,-99.99,,,0.12,weatherlink.com 1.10,2013-07-12 01:57:00,
2013-07-11 22:27:00,80.1,75.0,29.88,SSW,196,0.0,-999.0,83,-99.99,,,0.12,weatherlink.com 1.10,2013-07-12 02:27:00,
2013-07-11 22:57:00,80.1,75.0,29.88,SW,226,0.0,-999.0,84,-99.99,,,0.12,weatherlink.com 1.10,2013-07-12 02:57:00,
2013-07-11 23:12:00,80.1,75.0,29.89,SSW,208,1.0,-999.0,84,-99.99,,,0.12,weatherlink.com 1.10,2013-07-12 03:12:00,
2013-07-11 23:27:00,79.9,75.0,29.89,SSW,206,1.0,-999.0,84,-99.99,,,0.12,weatherlink.com 1.10,2013-07-12 03:27:00,
2013-07-11 23:42:00,79.9,75.0,29.88,SSW,200,0.0,-999.0,84,-99.99,,,0.12,weatherlink.com 1.10,2013-07-12 03:42:00,
2013-07-11 23:57:00,79.8,75.0,29.88,SW,223,4.0,-999.0,85,-99.99,,,0.12,weatherlink.com 1.10,2013-07-12 03:57:00,